createdAt,value
2019-02-21T00:00:58.808Z,77.05
2019-02-21T00:03:27.804Z,77.36
2019-02-21T00:05:56.773Z,77.58
2019-02-21T00:08:25.621Z,77.93
2019-02-21T00:10:54.544Z,77.44
2019-02-21T00:13:23.561Z,77.58
2019-02-21T00:15:52.502Z,77.21
2019-02-21T00:18:21.447Z,77.46
2019-02-21T00:20:50.368Z,77.46
2019-02-21T00:23:19.163Z,76.41
2019-02-21T00:25:48.143Z,76.27
2019-02-21T00:28:17.010Z,76.72
2019-02-21T00:30:45.867Z,76.46
2019-02-21T00:33:14.754Z,76.28
2019-02-21T00:35:43.669Z,76.96
2019-02-21T00:38:12.566Z,77.46
2019-02-21T00:40:41.493Z,77.74
2019-02-21T00:43:10.400Z,78.88
2019-02-21T00:45:39.259Z,78.90
2019-02-21T00:48:08.134Z,79.24
2019-02-21T00:50:36.921Z,79.20
2019-02-21T00:53:05.894Z,79.40
2019-02-21T00:55:34.741Z,79.58
2019-02-21T00:58:03.631Z,79.29
2019-02-21T01:00:32.612Z,79.57
2019-02-21T01:03:01.603Z,79.92
2019-02-21T01:05:30.524Z,80.42
2019-02-21T01:07:59.499Z,80.49
2019-02-21T01:10:28.714Z,80.51
2019-02-21T01:12:57.606Z,80.49
2019-02-21T01:15:26.516Z,80.06
2019-02-21T01:17:55.436Z,79.19
2019-02-21T01:20:24.464Z,78.44
2019-02-21T01:22:53.418Z,78.70
2019-02-21T01:25:22.289Z,79.36
2019-02-21T01:27:51.064Z,79.92
2019-02-21T01:30:20.088Z,79.92
2019-02-21T01:32:49.041Z,79.51
2019-02-21T01:35:17.932Z,80.15
2019-02-21T01:37:46.868Z,80.19
2019-02-21T01:40:15.739Z,80.77
2019-02-21T01:42:44.676Z,80.70
2019-02-21T01:45:13.755Z,80.89
2019-02-21T01:47:42.648Z,80.54
2019-02-21T01:50:11.646Z,79.60
2019-02-21T01:52:40.601Z,79.65
2019-02-21T01:55:10.351Z,79.33
2019-02-21T01:57:39.131Z,80.70
2019-02-21T02:00:10.136Z,80.38
2019-02-21T02:02:39.112Z,80.03
2019-02-21T02:05:09.134Z,80.51
2019-02-21T02:07:38.391Z,80.96
2019-02-21T02:10:08.293Z,81.26
2019-02-21T02:12:37.424Z,80.93
2019-02-21T02:15:07.318Z,81.28
2019-02-21T02:17:36.319Z,80.57
2019-02-21T02:20:05.610Z,80.56
2019-02-21T02:22:34.559Z,80.07
2019-02-21T02:25:03.628Z,79.92
2019-02-21T02:27:32.648Z,79.82
2019-02-21T02:30:01.441Z,79.69
2019-02-21T02:32:30.250Z,79.72
2019-02-21T02:34:59.957Z,79.56
2019-02-21T02:37:29.158Z,79.56
2019-02-21T02:39:58.052Z,79.95
2019-02-21T02:42:26.947Z,79.44
2019-02-21T02:44:55.919Z,79.33
2019-02-21T02:47:24.784Z,80.20
2019-02-21T02:49:53.634Z,79.73
2019-02-21T02:52:22.511Z,79.83
2019-02-21T02:54:51.441Z,80.20
2019-02-21T02:57:20.223Z,79.98
2019-02-21T02:59:49.235Z,80.06
2019-02-21T03:02:18.311Z,80.18
2019-02-21T03:04:47.215Z,79.48
2019-02-21T03:07:16.506Z,79.19
2019-02-21T03:09:45.526Z,79.07
2019-02-21T03:12:14.736Z,78.46
2019-02-21T03:14:43.636Z,78.63
2019-02-21T03:17:12.555Z,78.53
2019-02-21T03:19:41.382Z,78.21
2019-02-21T03:22:10.348Z,78.32
2019-02-21T03:24:39.249Z,78.54
2019-02-21T03:27:08.138Z,78.72
2019-02-21T03:29:37.042Z,78.84
2019-02-21T03:32:06.067Z,78.95
2019-02-21T03:34:35.397Z,79.20
2019-02-21T03:37:04.224Z,79.12
2019-02-21T03:39:33.210Z,79.48
2019-02-21T03:42:02.202Z,79.64
2019-02-21T03:44:31.201Z,80.19
2019-02-21T03:47:00.026Z,80.56
2019-02-21T03:49:28.899Z,81.25
2019-02-21T03:51:57.692Z,81.26
2019-02-21T03:54:26.628Z,81.71
2019-02-21T03:56:56.475Z,81.44
2019-02-21T03:59:25.498Z,81.51
2019-02-21T04:02:04.875Z,81.42
2019-02-21T04:04:25.034Z,81.52
2019-02-21T04:06:53.982Z,81.65
2019-02-21T04:09:22.793Z,81.79
2019-02-21T04:11:51.729Z,81.78
2019-02-21T04:14:21.180Z,82.00
2019-02-21T04:16:50.281Z,80.74
2019-02-21T04:19:19.126Z,80.81
2019-02-21T04:21:47.982Z,81.34
2019-02-21T04:24:16.891Z,81.84
2019-02-21T04:26:45.924Z,82.13
2019-02-21T04:29:15.168Z,82.28
2019-02-21T04:31:44.127Z,82.74
2019-02-21T04:34:12.878Z,83.12
2019-02-21T04:36:41.789Z,83.52
2019-02-21T04:39:10.633Z,83.51
2019-02-21T04:41:39.661Z,83.56
2019-02-21T04:44:08.564Z,83.47
2019-02-21T04:46:37.540Z,81.70
2019-02-21T04:49:06.396Z,81.25
2019-02-21T04:51:35.320Z,81.41
2019-02-21T04:54:04.288Z,81.27
2019-02-21T04:56:33.229Z,80.35
2019-02-21T04:59:02.184Z,80.96
2019-02-21T05:01:31.154Z,81.21
2019-02-21T05:04:00.119Z,80.75
2019-02-21T05:06:29.090Z,79.44
2019-02-21T05:08:57.925Z,79.00
2019-02-21T05:11:26.857Z,79.62
2019-02-21T05:13:57.709Z,79.34
2019-02-21T05:16:26.530Z,79.49
2019-02-21T05:18:55.504Z,78.80
2019-02-21T05:21:24.482Z,78.65
2019-02-21T05:23:53.484Z,78.59
2019-02-21T05:26:28.357Z,79.30
2019-02-21T05:28:57.237Z,79.58
2019-02-21T05:31:42.533Z,79.97
2019-02-21T05:34:26.200Z,79.99
2019-02-21T05:37:02.167Z,80.24
2019-02-21T05:39:50.060Z,80.60
2019-02-21T05:42:31.873Z,80.47
2019-02-21T05:45:38.081Z,80.44
2019-02-21T05:48:40.265Z,79.82
2019-02-21T05:51:23.752Z,79.69
2019-02-21T05:54:14.788Z,79.65
2019-02-21T05:57:01.595Z,79.62
2019-02-21T06:00:07.794Z,79.64
2019-02-21T06:02:58.263Z,79.70
2019-02-21T06:05:36.157Z,79.70
2019-02-21T06:08:22.948Z,79.48
2019-02-21T06:11:19.783Z,79.11
2019-02-21T06:13:56.780Z,79.22
2019-02-21T06:16:50.132Z,78.86
2019-02-21T06:19:56.237Z,79.02
2019-02-21T06:22:47.524Z,78.96
2019-02-21T06:25:50.553Z,79.11
2019-02-21T06:28:20.873Z,78.96
2019-02-21T06:30:53.478Z,79.04
2019-02-21T06:33:23.405Z,79.12
2019-02-21T06:35:52.411Z,79.11
2019-02-21T06:38:21.497Z,79.35
2019-02-21T06:40:50.537Z,79.92
2019-02-21T06:43:19.487Z,79.84
2019-02-21T06:45:48.488Z,79.77
2019-02-21T06:48:17.395Z,79.72
2019-02-21T06:50:47.737Z,79.56
2019-02-21T06:53:16.699Z,79.14
2019-02-21T06:55:45.504Z,78.10
2019-02-21T06:58:14.425Z,78.30
2019-02-21T07:00:43.498Z,77.26
2019-02-21T07:03:15.845Z,77.23
2019-02-21T07:05:43.549Z,74.72
2019-02-21T07:08:12.538Z,74.14
2019-02-21T07:10:41.513Z,74.88
2019-02-21T07:13:12.366Z,75.79
2019-02-21T07:15:41.426Z,75.91
2019-02-21T07:18:11.183Z,75.99
2019-02-21T07:20:40.028Z,75.26
2019-02-21T07:23:11.241Z,75.10
2019-02-21T07:25:51.345Z,74.37
2019-02-21T07:28:20.277Z,73.95
2019-02-21T07:30:50.273Z,73.52
2019-02-21T07:33:27.748Z,73.00
2019-02-21T07:35:49.872Z,71.31
2019-02-21T07:38:18.795Z,72.18
2019-02-21T07:40:47.651Z,70.96
2019-02-21T07:43:16.771Z,71.38
2019-02-21T07:45:45.788Z,71.20
2019-02-21T07:48:14.697Z,71.20
2019-02-21T07:50:43.707Z,70.71
2019-02-21T07:53:12.712Z,71.06
2019-02-21T07:55:41.644Z,71.91
2019-02-21T07:58:10.605Z,71.65
2019-02-21T08:00:39.524Z,72.16
2019-02-21T08:03:09.292Z,70.82
2019-02-21T08:05:38.811Z,70.84
2019-02-21T08:08:09.293Z,70.37
2019-02-21T08:10:38.876Z,70.98
2019-02-21T08:13:08.040Z,69.75
2019-02-21T08:15:37.171Z,69.53
2019-02-21T08:18:06.087Z,69.89
2019-02-21T08:20:40.626Z,69.58
2019-02-21T08:23:05.753Z,68.36
2019-02-21T08:25:34.672Z,68.42
2019-02-21T08:28:03.544Z,68.15
2019-02-21T08:30:33.113Z,67.18
2019-02-21T08:33:15.495Z,67.87
2019-02-21T08:35:44.363Z,67.74
2019-02-21T08:38:13.379Z,67.43
2019-02-21T08:40:42.286Z,67.77
2019-02-21T08:43:11.205Z,67.15
2019-02-21T08:45:40.051Z,66.63
2019-02-21T08:48:09.044Z,66.63
2019-02-21T08:50:38.008Z,66.33
2019-02-21T08:53:06.918Z,66.14
2019-02-21T08:55:35.978Z,66.39
2019-02-21T08:58:06.059Z,66.81
2019-02-21T09:00:35.987Z,66.08
2019-02-21T09:03:04.945Z,66.51
2019-02-21T09:05:33.977Z,65.35
2019-02-21T09:08:03.463Z,64.29
2019-02-21T09:10:32.491Z,63.33
2019-02-21T09:13:01.394Z,63.03
2019-02-21T09:15:30.181Z,62.50
2019-02-21T09:18:00.032Z,63.25
2019-02-21T09:20:28.985Z,64.31
2019-02-21T09:22:57.777Z,64.51
2019-02-21T09:25:26.703Z,64.88
2019-02-21T09:27:55.746Z,65.30
2019-02-21T09:30:24.646Z,65.83
2019-02-21T09:32:53.643Z,65.79
2019-02-21T09:35:22.647Z,65.16
2019-02-21T09:37:51.544Z,64.97
2019-02-21T09:40:20.479Z,63.90
2019-02-21T09:42:49.471Z,63.90
2019-02-21T09:45:18.626Z,61.99
2019-02-21T09:47:47.691Z,60.31
2019-02-21T09:50:16.811Z,59.65
2019-02-21T09:52:45.700Z,58.68
2019-02-21T09:55:15.745Z,59.53
2019-02-21T09:57:44.721Z,58.47
2019-02-21T10:00:16.176Z,58.93
2019-02-21T10:02:44.968Z,59.50
2019-02-21T10:05:14.048Z,59.00
2019-02-21T10:07:43.062Z,59.01
2019-02-21T10:10:14.440Z,60.30
2019-02-21T10:12:43.860Z,60.64
2019-02-21T10:15:13.902Z,61.61
2019-02-21T10:17:45.465Z,61.97
2019-02-21T10:20:17.217Z,61.75
2019-02-21T10:22:46.216Z,61.32
2019-02-21T10:25:17.944Z,60.14
2019-02-21T10:27:46.930Z,59.97
2019-02-21T10:30:17.337Z,59.92
2019-02-21T10:32:46.314Z,59.38
2019-02-21T10:35:15.408Z,58.98
2019-02-21T10:37:44.428Z,58.90
2019-02-21T10:40:13.495Z,58.24
2019-02-21T10:42:42.565Z,58.16
2019-02-21T10:45:14.008Z,57.07
2019-02-21T10:47:43.051Z,57.00
2019-02-21T10:50:14.980Z,57.69
2019-02-21T10:52:44.396Z,57.81
2019-02-21T10:55:14.220Z,57.23
2019-02-21T10:57:45.495Z,56.62
2019-02-21T11:00:18.830Z,56.30
2019-02-21T11:02:48.301Z,56.48
2019-02-21T11:05:17.452Z,56.65
2019-02-21T11:07:46.352Z,55.91
2019-02-21T11:10:18.917Z,56.58
2019-02-21T11:12:47.084Z,54.68
2019-02-21T11:15:16.441Z,54.27
2019-02-21T11:17:45.524Z,55.07
2019-02-21T11:20:15.929Z,54.94
2019-02-21T11:22:45.059Z,54.94
2019-02-21T11:25:14.163Z,53.40
2019-02-21T11:27:43.425Z,53.67
2019-02-21T11:30:15.027Z,53.62
2019-02-21T11:32:43.975Z,54.35
2019-02-21T11:35:13.729Z,54.17
2019-02-21T11:37:46.566Z,54.09
2019-02-21T11:40:15.366Z,54.09
2019-02-21T11:42:44.503Z,54.33
2019-02-21T11:45:15.117Z,54.00
2019-02-21T11:47:44.262Z,52.96
2019-02-21T11:50:15.187Z,53.97
2019-02-21T11:52:44.183Z,53.46
2019-02-21T11:55:16.035Z,53.13
2019-02-21T11:57:44.983Z,53.71
2019-02-21T12:00:19.461Z,53.25
2019-02-21T12:02:48.484Z,53.64
2019-02-21T12:05:19.563Z,53.88
2019-02-21T12:07:48.632Z,53.60
2019-02-21T12:10:17.679Z,53.31
2019-02-21T12:12:46.853Z,53.19
2019-02-21T12:15:16.125Z,53.62
2019-02-21T12:17:45.224Z,53.59
2019-02-21T12:20:14.901Z,52.63
2019-02-21T12:22:43.973Z,51.91
2019-02-21T12:25:14.421Z,51.70
2019-02-21T12:27:43.634Z,51.71
2019-02-21T12:30:14.890Z,51.93
2019-02-21T12:32:44.019Z,52.26
2019-02-21T12:35:13.323Z,52.16
2019-02-21T12:37:42.328Z,52.57
2019-02-21T12:40:13.595Z,52.02
2019-02-21T12:42:42.652Z,52.32
2019-02-21T12:45:13.428Z,52.43
2019-02-21T12:47:50.985Z,52.00
2019-02-21T12:50:13.379Z,52.00
2019-02-21T12:52:42.454Z,53.12
2019-02-21T12:55:11.531Z,54.08
2019-02-21T12:57:40.507Z,54.71
2019-02-21T13:00:12.637Z,54.52
2019-02-21T13:02:41.777Z,55.24
2019-02-21T13:05:10.992Z,55.71
2019-02-21T13:07:39.904Z,56.08
2019-02-21T13:10:13.244Z,56.71
2019-02-21T13:12:42.340Z,57.12
2019-02-21T13:15:12.800Z,57.59
2019-02-21T13:17:41.893Z,57.62
2019-02-21T13:20:11.296Z,57.51
2019-02-21T13:22:40.333Z,56.60
2019-02-21T13:25:10.528Z,55.82
2019-02-21T13:27:39.567Z,55.25
2019-02-21T13:30:11.280Z,54.42
2019-02-21T13:32:40.393Z,54.07
2019-02-21T13:35:10.520Z,53.94
2019-02-21T13:37:39.607Z,53.70
2019-02-21T13:40:10.426Z,53.49
2019-02-21T13:42:39.392Z,53.65
2019-02-21T13:45:09.454Z,53.21
2019-02-21T13:47:39.212Z,52.89
2019-02-21T13:50:11.502Z,51.75
2019-02-21T13:52:40.611Z,50.86
2019-02-21T13:55:09.595Z,50.30
2019-02-21T13:57:38.727Z,48.66
2019-02-21T14:00:11.100Z,48.43
2019-02-21T14:02:40.209Z,49.32
2019-02-21T14:05:09.274Z,49.59
2019-02-21T14:07:38.235Z,47.79
2019-02-21T14:10:07.972Z,47.09
2019-02-21T14:12:36.840Z,46.01
2019-02-21T14:15:07.763Z,45.96
2019-02-21T14:17:36.819Z,46.44
2019-02-21T14:20:06.180Z,46.68
2019-02-21T14:22:35.293Z,44.67
2019-02-21T14:25:04.890Z,42.31
2019-02-21T14:27:33.939Z,42.30
2019-02-21T14:30:03.008Z,43.11
2019-02-21T14:32:31.939Z,42.38
2019-02-21T14:35:00.984Z,41.99
2019-02-21T14:37:29.929Z,45.12
2019-02-21T14:39:58.958Z,44.12
2019-02-21T14:42:28.093Z,43.75
2019-02-21T14:44:57.099Z,42.86
2019-02-21T14:47:26.093Z,41.79
2019-02-21T14:49:55.128Z,42.40
2019-02-21T14:52:24.145Z,42.56
2019-02-21T14:54:53.160Z,42.08
2019-02-21T14:57:22.130Z,41.88
2019-02-21T14:59:51.262Z,40.25
2019-02-21T15:02:20.283Z,42.61
2019-02-21T15:04:49.264Z,42.52
2019-02-21T15:07:18.307Z,42.53
2019-02-21T15:09:47.409Z,42.90
2019-02-21T15:12:16.391Z,42.72
2019-02-21T15:14:45.392Z,43.64
2019-02-21T15:17:14.398Z,44.18
2019-02-21T15:19:43.384Z,44.36
2019-02-21T15:22:13.788Z,45.49
2019-02-21T15:24:42.990Z,46.38
2019-02-21T15:27:11.912Z,47.03
2019-02-21T15:29:41.718Z,47.27
2019-02-21T15:32:13.456Z,47.48
2019-02-21T15:34:41.676Z,48.22
2019-02-21T15:37:10.786Z,48.30
2019-02-21T15:39:42.766Z,49.22
2019-02-21T15:42:10.744Z,49.90
2019-02-21T15:44:39.845Z,49.99
2019-02-21T15:47:08.803Z,50.36
2019-02-21T15:49:38.216Z,50.44
2019-02-21T15:52:07.220Z,50.87
2019-02-21T15:54:36.373Z,50.88
2019-02-21T15:57:05.369Z,50.78
2019-02-21T15:59:34.467Z,51.20
2019-02-21T16:02:03.675Z,50.98
2019-02-21T16:04:35.291Z,51.89
2019-02-21T16:07:03.672Z,51.99
2019-02-21T16:09:32.575Z,51.83
2019-02-21T16:12:01.695Z,51.72
2019-02-21T16:14:30.690Z,51.89
2019-02-21T16:16:59.696Z,52.19
2019-02-21T16:19:28.826Z,52.61
2019-02-21T16:21:57.894Z,52.71
2019-02-21T16:24:26.938Z,52.77
2019-02-21T16:26:55.999Z,52.98
2019-02-21T16:29:26.027Z,53.31
2019-02-21T16:31:55.076Z,53.58
2019-02-21T16:34:24.086Z,53.83
2019-02-21T16:37:02.129Z,54.09
2019-02-21T16:39:23.833Z,54.34
2019-02-21T16:41:52.638Z,54.44
2019-02-21T16:44:21.808Z,54.62
2019-02-21T16:46:50.830Z,54.68
2019-02-21T16:49:19.962Z,55.29
2019-02-21T16:51:48.759Z,57.53
2019-02-21T16:54:17.703Z,55.88
2019-02-21T16:56:46.538Z,57.16
2019-02-21T16:59:15.449Z,57.93
2019-02-21T17:01:44.818Z,57.87
2019-02-21T17:04:13.901Z,58.06
2019-02-21T17:06:42.802Z,58.82
2019-02-21T17:09:11.788Z,59.50
2019-02-21T17:11:40.986Z,60.06
2019-02-21T17:14:10.305Z,60.64
2019-02-21T17:16:39.220Z,58.91
2019-02-21T17:19:08.713Z,58.91
2019-02-21T17:21:37.624Z,58.76
2019-02-21T17:24:06.613Z,59.67
2019-02-21T17:26:36.576Z,59.67
2019-02-21T17:29:05.575Z,59.51
2019-02-21T17:31:34.588Z,60.21
2019-02-21T17:34:03.552Z,60.57
2019-02-21T17:36:32.822Z,61.29
2019-02-21T17:39:01.993Z,62.69
2019-02-21T17:41:31.291Z,62.00
2019-02-21T17:44:03.240Z,61.59
2019-02-21T17:46:32.330Z,61.77
2019-02-21T17:49:01.286Z,61.93
2019-02-21T17:51:30.614Z,61.84
2019-02-21T17:53:59.483Z,62.05
2019-02-21T17:56:28.516Z,61.99
2019-02-21T17:58:57.603Z,62.47
2019-02-21T18:01:26.564Z,62.40
2019-02-21T18:03:55.685Z,61.87
2019-02-21T18:06:26.332Z,63.33
2019-02-21T18:08:55.353Z,63.33
2019-02-21T18:11:24.561Z,63.92
2019-02-21T18:13:53.546Z,65.20
2019-02-21T18:16:22.472Z,65.49
2019-02-21T18:18:51.501Z,65.19
2019-02-21T18:21:20.536Z,65.03
2019-02-21T18:23:49.567Z,65.20
2019-02-21T18:26:19.640Z,64.60
2019-02-21T18:28:48.573Z,64.71
2019-02-21T18:31:17.674Z,64.55
2019-02-21T18:33:46.592Z,64.31
2019-02-21T18:36:15.511Z,64.96
2019-02-21T18:38:44.451Z,64.66
2019-02-21T18:41:13.393Z,64.91
2019-02-21T18:43:42.538Z,64.84
2019-02-21T18:46:11.535Z,64.68
2019-02-21T18:48:40.431Z,64.22
2019-02-21T18:51:09.468Z,64.62
2019-02-21T18:53:38.564Z,64.54
2019-02-21T18:56:08.353Z,64.63
2019-02-21T18:58:37.293Z,63.65
2019-02-21T19:01:07.422Z,63.73
2019-02-21T19:03:36.424Z,63.52
2019-02-21T19:06:05.511Z,64.38
2019-02-21T19:08:34.510Z,63.45
2019-02-21T19:11:03.516Z,64.02
2019-02-21T19:13:32.441Z,63.37
2019-02-21T19:16:01.485Z,62.40
2019-02-21T19:18:30.390Z,63.10
2019-02-21T19:20:59.538Z,62.82
2019-02-21T19:23:28.514Z,63.29
2019-02-21T19:25:57.509Z,62.39
2019-02-21T19:28:26.491Z,63.10
2019-02-21T19:31:08.297Z,63.55
2019-02-21T19:33:37.509Z,63.81
2019-02-21T19:36:06.449Z,63.21
2019-02-21T19:38:35.407Z,63.02
2019-02-21T19:41:04.404Z,63.07
2019-02-21T19:43:33.508Z,64.03
2019-02-21T19:46:02.508Z,63.60
2019-02-21T19:48:31.378Z,64.29
2019-02-21T19:51:00.227Z,64.23
2019-02-21T19:53:29.269Z,64.77
2019-02-21T19:55:58.317Z,64.22
2019-02-21T19:58:27.531Z,64.56
2019-02-21T20:00:56.521Z,65.05
2019-02-21T20:03:25.329Z,65.47
2019-02-21T20:05:54.477Z,64.85
2019-02-21T20:08:23.472Z,64.33
2019-02-21T20:10:52.459Z,63.71
2019-02-21T20:13:21.457Z,63.71
2019-02-21T20:15:50.488Z,63.70
2019-02-21T20:18:19.472Z,63.53
2019-02-21T20:20:49.203Z,63.81
2019-02-21T20:23:18.359Z,63.98
2019-02-21T20:25:47.355Z,63.86
2019-02-21T20:28:16.374Z,64.07
2019-02-21T20:30:45.427Z,63.74
2019-02-21T20:33:14.608Z,63.81
2019-02-21T20:35:43.563Z,63.80
2019-02-21T20:38:12.602Z,63.86
2019-02-21T20:40:41.434Z,63.75
2019-02-21T20:43:10.377Z,63.84
2019-02-21T20:45:39.377Z,63.79
2019-02-21T20:48:08.394Z,64.13
2019-02-21T20:50:37.399Z,64.15
2019-02-21T20:53:06.468Z,64.81
2019-02-21T20:55:43.393Z,65.10
2019-02-21T20:58:06.366Z,64.64
2019-02-21T21:00:35.387Z,64.67
2019-02-21T21:03:04.419Z,64.62
2019-02-21T21:05:33.409Z,64.49
2019-02-21T21:08:02.388Z,64.79
2019-02-21T21:10:31.337Z,64.45
2019-02-21T21:13:00.348Z,64.98
2019-02-21T21:15:29.352Z,64.12
2019-02-21T21:17:58.185Z,63.68
2019-02-21T21:20:27.182Z,64.06
2019-02-21T21:22:56.087Z,64.30
2019-02-21T21:25:25.016Z,63.80
2019-02-21T21:27:54.118Z,63.89
2019-02-21T21:30:23.187Z,64.39
2019-02-21T21:32:53.132Z,64.17
2019-02-21T21:35:22.189Z,64.18
2019-02-21T21:37:51.180Z,64.04
2019-02-21T21:40:20.443Z,64.33
2019-02-21T21:42:49.732Z,64.63
2019-02-21T21:45:18.977Z,64.44
2019-02-21T21:47:47.991Z,64.17
2019-02-21T21:50:17.408Z,64.28
2019-02-21T21:52:46.339Z,65.02
2019-02-21T21:55:15.371Z,64.80
2019-02-21T21:57:44.503Z,65.55
2019-02-21T22:00:17.990Z,66.61
2019-02-21T22:02:47.163Z,66.34
2019-02-21T22:05:16.197Z,65.47
2019-02-21T22:07:45.246Z,66.05
2019-02-21T22:10:14.628Z,65.42
2019-02-21T22:12:43.634Z,65.40
2019-02-21T22:15:13.180Z,65.48
2019-02-21T22:17:42.337Z,65.76
2019-02-21T22:20:11.284Z,66.04
2019-02-21T22:22:40.260Z,65.91
2019-02-21T22:25:10.493Z,66.12
2019-02-21T22:27:39.613Z,65.95
2019-02-21T22:30:11.043Z,65.41
2019-02-21T22:32:40.131Z,65.83
2019-02-21T22:35:09.946Z,65.77
2019-02-21T22:37:38.982Z,66.17
2019-02-21T22:40:09.481Z,65.95
2019-02-21T22:42:38.499Z,65.86
2019-02-21T22:45:07.764Z,66.08
2019-02-21T22:47:36.896Z,66.52
2019-02-21T22:50:07.477Z,66.55
2019-02-21T22:52:36.419Z,66.98
2019-02-21T22:55:09.716Z,65.95
2019-02-21T22:57:36.865Z,66.64
2019-02-21T23:00:50.362Z,66.17
2019-02-21T23:03:19.355Z,66.60
2019-02-21T23:06:05.812Z,67.06
2019-02-21T23:08:53.906Z,67.52
2019-02-21T23:11:23.341Z,67.71
2019-02-21T23:13:52.421Z,67.79
2019-02-21T23:16:21.576Z,66.76
2019-02-21T23:18:56.312Z,67.07
2019-02-21T23:21:25.749Z,67.26
2019-02-21T23:23:54.833Z,67.87
2019-02-21T23:26:25.361Z,67.77
2019-02-21T23:28:54.428Z,68.47
2019-02-21T23:31:23.215Z,68.80
2019-02-21T23:33:55.499Z,68.41
2019-02-21T23:36:24.478Z,68.20
2019-02-21T23:38:53.472Z,68.59
2019-02-21T23:41:22.492Z,67.04
2019-02-21T23:43:51.479Z,67.30
2019-02-21T23:46:20.884Z,67.14
2019-02-21T23:48:49.680Z,67.27
2019-02-21T23:51:18.579Z,67.25
2019-02-21T23:53:47.583Z,66.96
2019-02-21T23:56:16.631Z,66.53
2019-02-21T23:58:45.543Z,66.83
